sensor_id;sensor_type;location;lat;lon;timestamp;temperature;humidity
25668;DHT22;18003;-33.830;151.202;2022-12-20T00:00:23;18.50;99.90
25668;DHT22;18003;-33.830;151.202;2022-12-20T00:02:53;18.50;99.90
25668;DHT22;18003;-33.830;151.202;2022-12-20T00:05:23;18.50;99.90
25668;DHT22;18003;-33.830;151.202;2022-12-20T00:07:53;18.50;99.90
25668;DHT22;18003;-33.830;151.202;2022-12-20T00:10:23;18.50;99.90
25668;DHT22;18003;-33.830;151.202;2022-12-20T00:12:54;18.50;99.90
25668;DHT22;18003;-33.830;151.202;2022-12-20T00:15:24;18.50;99.90
25668;DHT22;18003;-33.830;151.202;2022-12-20T00:17:54;18.50;99.90
25668;DHT22;18003;-33.830;151.202;2022-12-20T00:20:24;18.50;99.90
25668;DHT22;18003;-33.830;151.202;2022-12-20T00:22:54;18.50;99.90
25668;DHT22;18003;-33.830;151.202;2022-12-20T00:25:24;18.50;99.90
25668;DHT22;18003;-33.830;151.202;2022-12-20T00:27:54;18.60;99.90
25668;DHT22;18003;-33.830;151.202;2022-12-20T00:30:24;18.60;99.90
25668;DHT22;18003;-33.830;151.202;2022-12-20T00:32:54;18.60;99.90
25668;DHT22;18003;-33.830;151.202;2022-12-20T00:35:25;18.60;99.90
25668;DHT22;18003;-33.830;151.202;2022-12-20T00:37:55;18.60;99.90
25668;DHT22;18003;-33.830;151.202;2022-12-20T00:40:25;18.60;99.90
25668;DHT22;18003;-33.830;151.202;2022-12-20T00:42:56;18.70;99.90
25668;DHT22;18003;-33.830;151.202;2022-12-20T00:45:26;18.60;99.90
25668;DHT22;18003;-33.830;151.202;2022-12-20T00:47:56;18.60;99.90
25668;DHT22;18003;-33.830;151.202;2022-12-20T00:50:27;18.70;99.90
25668;DHT22;18003;-33.830;151.202;2022-12-20T00:52:57;18.70;99.90
25668;DHT22;18003;-33.830;151.202;2022-12-20T00:55:27;18.70;99.90
25668;DHT22;18003;-33.830;151.202;2022-12-20T00:57:57;18.60;99.90
25668;DHT22;18003;-33.830;151.202;2022-12-20T01:00:27;18.60;99.90
25668;DHT22;18003;-33.830;151.202;2022-12-20T01:02:57;18.60;99.90
25668;DHT22;18003;-33.830;151.202;2022-12-20T01:05:27;18.50;99.90
25668;DHT22;18003;-33.830;151.202;2022-12-20T01:07:57;18.50;99.90
25668;DHT22;18003;-33.830;151.202;2022-12-20T01:10:28;18.60;99.90
25668;DHT22;18003;-33.830;151.202;2022-12-20T01:12:58;18.60;99.90
25668;DHT22;18003;-33.830;151.202;2022-12-20T01:15:28;18.60;99.90
25668;DHT22;18003;-33.830;151.202;2022-12-20T01:17:58;18.60;99.90
25668;DHT22;18003;-33.830;151.202;2022-12-20T01:20:28;18.60;99.90
25668;DHT22;18003;-33.830;151.202;2022-12-20T01:22:58;18.60;99.90
25668;DHT22;18003;-33.830;151.202;2022-12-20T01:25:28;18.60;99.90
25668;DHT22;18003;-33.830;151.202;2022-12-20T01:27:58;18.60;99.90
25668;DHT22;18003;-33.830;151.202;2022-12-20T01:30:28;18.60;99.90
25668;DHT22;18003;-33.830;151.202;2022-12-20T01:32:58;18.60;99.90
25668;DHT22;18003;-33.830;151.202;2022-12-20T01:35:29;18.60;99.90
25668;DHT22;18003;-33.830;151.202;2022-12-20T01:37:58;18.50;99.90
25668;DHT22;18003;-33.830;151.202;2022-12-20T01:40:28;18.50;99.90
25668;DHT22;18003;-33.830;151.202;2022-12-20T01:42:58;18.50;99.90
25668;DHT22;18003;-33.830;151.202;2022-12-20T01:45:30;18.50;99.90
25668;DHT22;18003;-33.830;151.202;2022-12-20T01:48:00;18.50;99.90
25668;DHT22;18003;-33.830;151.202;2022-12-20T01:50:30;18.50;99.90
25668;DHT22;18003;-33.830;151.202;2022-12-20T01:53:01;18.60;99.90
25668;DHT22;18003;-33.830;151.202;2022-12-20T01:55:30;18.70;99.90
25668;DHT22;18003;-33.830;151.202;2022-12-20T01:58:02;18.70;99.90
25668;DHT22;18003;-33.830;151.202;2022-12-20T02:00:38;18.70;99.90
25668;DHT22;18003;-33.830;151.202;2022-12-20T02:03:11;18.70;99.90
25668;DHT22;18003;-33.830;151.202;2022-12-20T02:05:37;18.70;99.90
25668;DHT22;18003;-33.830;151.202;2022-12-20T02:08:06;18.80;99.90
25668;DHT22;18003;-33.830;151.202;2022-12-20T02:10:47;18.80;99.90
25668;DHT22;18003;-33.830;151.202;2022-12-20T02:13:37;18.90;99.90
25668;DHT22;18003;-33.830;151.202;2022-12-20T02:15:52;18.90;99.90
25668;DHT22;18003;-33.830;151.202;2022-12-20T02:18:22;18.90;99.90
25668;DHT22;18003;-33.830;151.202;2022-12-20T02:21:17;18.90;99.90
25668;DHT22;18003;-33.830;151.202;2022-12-20T02:29:39;18.90;99.90
25668;DHT22;18003;-33.830;151.202;2022-12-20T02:34:40;19.00;99.90
25668;DHT22;18003;-33.830;151.202;2022-12-20T02:37:10;19.10;99.90
25668;DHT22;18003;-33.830;151.202;2022-12-20T02:39:41;19.00;99.90
25668;DHT22;18003;-33.830;151.202;2022-12-20T02:42:12;19.10;99.90
25668;DHT22;18003;-33.830;151.202;2022-12-20T02:44:44;19.00;99.90
25668;DHT22;18003;-33.830;151.202;2022-12-20T02:47:33;19.00;99.90
25668;DHT22;18003;-33.830;151.202;2022-12-20T02:50:04;19.00;99.90
25668;DHT22;18003;-33.830;151.202;2022-12-20T02:52:34;19.00;99.90
25668;DHT22;18003;-33.830;151.202;2022-12-20T02:55:05;19.00;99.90
25668;DHT22;18003;-33.830;151.202;2022-12-20T02:57:55;19.00;99.90
25668;DHT22;18003;-33.830;151.202;2022-12-20T03:00:23;19.00;99.90
25668;DHT22;18003;-33.830;151.202;2022-12-20T03:02:53;19.00;99.90
25668;DHT22;18003;-33.830;151.202;2022-12-20T03:05:44;19.10;99.90
25668;DHT22;18003;-33.830;151.202;2022-12-20T03:08:21;19.00;99.90
25668;DHT22;18003;-33.830;151.202;2022-12-20T03:10:46;19.10;99.90
25668;DHT22;18003;-33.830;151.202;2022-12-20T03:13:16;19.00;99.90
25668;DHT22;18003;-33.830;151.202;2022-12-20T03:15:46;19.10;99.90
25668;DHT22;18003;-33.830;151.202;2022-12-20T03:18:16;19.10;99.90
25668;DHT22;18003;-33.830;151.202;2022-12-20T03:20:46;19.10;99.90
25668;DHT22;18003;-33.830;151.202;2022-12-20T03:23:16;19.10;99.90
25668;DHT22;18003;-33.830;151.202;2022-12-20T03:25:47;19.10;99.90
25668;DHT22;18003;-33.830;151.202;2022-12-20T03:28:17;19.10;99.90
25668;DHT22;18003;-33.830;151.202;2022-12-20T03:30:47;19.10;99.90
25668;DHT22;18003;-33.830;151.202;2022-12-20T03:33:17;19.10;99.90
25668;DHT22;18003;-33.830;151.202;2022-12-20T03:35:47;19.10;99.90
25668;DHT22;18003;-33.830;151.202;2022-12-20T03:38:17;19.10;99.90
25668;DHT22;18003;-33.830;151.202;2022-12-20T03:40:47;19.10;99.90
25668;DHT22;18003;-33.830;151.202;2022-12-20T03:43:17;19.10;99.90
25668;DHT22;18003;-33.830;151.202;2022-12-20T03:45:47;19.10;99.90
25668;DHT22;18003;-33.830;151.202;2022-12-20T03:48:29;19.10;99.90
25668;DHT22;18003;-33.830;151.202;2022-12-20T03:50:59;19.10;99.90
25668;DHT22;18003;-33.830;151.202;2022-12-20T03:53:29;19.00;99.90
25668;DHT22;18003;-33.830;151.202;2022-12-20T03:55:59;19.10;99.90
25668;DHT22;18003;-33.830;151.202;2022-12-20T03:58:29;19.10;99.90
25668;DHT22;18003;-33.830;151.202;2022-12-20T04:00:59;19.10;99.90
25668;DHT22;18003;-33.830;151.202;2022-12-20T04:03:29;19.10;99.90
25668;DHT22;18003;-33.830;151.202;2022-12-20T04:05:59;19.20;99.90
25668;DHT22;18003;-33.830;151.202;2022-12-20T04:08:29;19.10;99.90
25668;DHT22;18003;-33.830;151.202;2022-12-20T04:10:59;19.10;99.90
25668;DHT22;18003;-33.830;151.202;2022-12-20T04:13:49;19.20;99.90
25668;DHT22;18003;-33.830;151.202;2022-12-20T04:16:20;19.20;99.90
25668;DHT22;18003;-33.830;151.202;2022-12-20T04:18:51;19.20;99.90
25668;DHT22;18003;-33.830;151.202;2022-12-20T04:21:31;19.20;99.90
25668;DHT22;18003;-33.830;151.202;2022-12-20T04:24:03;19.20;99.90
25668;DHT22;18003;-33.830;151.202;2022-12-20T04:26:33;19.30;99.90
25668;DHT22;18003;-33.830;151.202;2022-12-20T04:29:03;19.30;99.90
25668;DHT22;18003;-33.830;151.202;2022-12-20T04:31:33;19.30;99.90
25668;DHT22;18003;-33.830;151.202;2022-12-20T04:34:03;19.30;99.90
25668;DHT22;18003;-33.830;151.202;2022-12-20T04:36:33;19.20;99.90
25668;DHT22;18003;-33.830;151.202;2022-12-20T04:39:03;19.20;99.90
25668;DHT22;18003;-33.830;151.202;2022-12-20T04:41:33;19.20;99.90
25668;DHT22;18003;-33.830;151.202;2022-12-20T04:44:03;19.20;99.90
25668;DHT22;18003;-33.830;151.202;2022-12-20T04:46:33;19.20;99.90
25668;DHT22;18003;-33.830;151.202;2022-12-20T04:49:04;19.10;99.90
25668;DHT22;18003;-33.830;151.202;2022-12-20T04:51:38;19.10;99.90
25668;DHT22;18003;-33.830;151.202;2022-12-20T04:54:08;19.10;99.90
25668;DHT22;18003;-33.830;151.202;2022-12-20T04:56:38;19.10;99.90
25668;DHT22;18003;-33.830;151.202;2022-12-20T04:59:08;19.10;99.90
25668;DHT22;18003;-33.830;151.202;2022-12-20T05:01:39;19.00;99.90
25668;DHT22;18003;-33.830;151.202;2022-12-20T05:04:09;19.00;99.90
25668;DHT22;18003;-33.830;151.202;2022-12-20T05:06:39;19.00;99.90
25668;DHT22;18003;-33.830;151.202;2022-12-20T05:09:09;19.00;99.90
25668;DHT22;18003;-33.830;151.202;2022-12-20T05:11:39;19.00;99.90
25668;DHT22;18003;-33.830;151.202;2022-12-20T05:14:09;19.00;99.90
25668;DHT22;18003;-33.830;151.202;2022-12-20T05:16:39;19.00;99.90
25668;DHT22;18003;-33.830;151.202;2022-12-20T05:19:09;19.00;99.90
25668;DHT22;18003;-33.830;151.202;2022-12-20T05:21:39;19.00;99.90
25668;DHT22;18003;-33.830;151.202;2022-12-20T05:24:27;19.00;99.90
25668;DHT22;18003;-33.830;151.202;2022-12-20T05:27:16;19.00;99.90
25668;DHT22;18003;-33.830;151.202;2022-12-20T05:29:46;19.00;99.90
25668;DHT22;18003;-33.830;151.202;2022-12-20T05:32:16;19.00;99.90
25668;DHT22;18003;-33.830;151.202;2022-12-20T05:35:05;19.00;99.90
25668;DHT22;18003;-33.830;151.202;2022-12-20T05:37:35;18.90;99.90
25668;DHT22;18003;-33.830;151.202;2022-12-20T05:40:06;18.90;99.90
25668;DHT22;18003;-33.830;151.202;2022-12-20T05:42:36;18.90;99.90
25668;DHT22;18003;-33.830;151.202;2022-12-20T05:45:06;18.90;99.90
25668;DHT22;18003;-33.830;151.202;2022-12-20T05:47:37;18.90;99.90
25668;DHT22;18003;-33.830;151.202;2022-12-20T05:50:08;19.00;99.90
25668;DHT22;18003;-33.830;151.202;2022-12-20T05:52:37;19.00;99.90
25668;DHT22;18003;-33.830;151.202;2022-12-20T05:55:07;19.00;99.90
25668;DHT22;18003;-33.830;151.202;2022-12-20T05:57:37;19.00;99.90
25668;DHT22;18003;-33.830;151.202;2022-12-20T06:00:08;19.00;99.90
25668;DHT22;18003;-33.830;151.202;2022-12-20T06:02:39;18.90;99.90
25668;DHT22;18003;-33.830;151.202;2022-12-20T06:05:09;18.90;99.90
25668;DHT22;18003;-33.830;151.202;2022-12-20T06:07:39;18.90;99.90
25668;DHT22;18003;-33.830;151.202;2022-12-20T06:10:10;18.90;99.90
25668;DHT22;18003;-33.830;151.202;2022-12-20T06:12:40;18.90;99.90
25668;DHT22;18003;-33.830;151.202;2022-12-20T06:15:10;18.90;99.90
25668;DHT22;18003;-33.830;151.202;2022-12-20T06:17:40;18.90;99.90
25668;DHT22;18003;-33.830;151.202;2022-12-20T06:20:10;18.90;99.90
25668;DHT22;18003;-33.830;151.202;2022-12-20T06:22:40;18.90;99.90
25668;DHT22;18003;-33.830;151.202;2022-12-20T06:25:10;18.90;99.90
25668;DHT22;18003;-33.830;151.202;2022-12-20T06:27:42;18.90;99.90
25668;DHT22;18003;-33.830;151.202;2022-12-20T06:30:12;18.90;99.90
25668;DHT22;18003;-33.830;151.202;2022-12-20T06:32:42;18.90;99.90
25668;DHT22;18003;-33.830;151.202;2022-12-20T06:35:12;19.00;99.90
25668;DHT22;18003;-33.830;151.202;2022-12-20T06:37:42;19.00;99.90
25668;DHT22;18003;-33.830;151.202;2022-12-20T06:40:13;19.00;99.90
25668;DHT22;18003;-33.830;151.202;2022-12-20T06:42:43;19.10;99.90
25668;DHT22;18003;-33.830;151.202;2022-12-20T06:45:13;19.10;99.90
25668;DHT22;18003;-33.830;151.202;2022-12-20T06:47:43;19.10;99.90
25668;DHT22;18003;-33.830;151.202;2022-12-20T06:50:13;19.20;99.90
25668;DHT22;18003;-33.830;151.202;2022-12-20T06:52:44;19.20;99.90
25668;DHT22;18003;-33.830;151.202;2022-12-20T06:55:14;19.20;99.90
25668;DHT22;18003;-33.830;151.202;2022-12-20T06:57:44;19.10;99.90
25668;DHT22;18003;-33.830;151.202;2022-12-20T07:00:14;19.10;99.90
25668;DHT22;18003;-33.830;151.202;2022-12-20T07:02:44;19.10;99.90
25668;DHT22;18003;-33.830;151.202;2022-12-20T07:05:14;19.20;99.90
25668;DHT22;18003;-33.830;151.202;2022-12-20T07:07:44;19.20;99.90
25668;DHT22;18003;-33.830;151.202;2022-12-20T07:10:15;19.20;99.90
25668;DHT22;18003;-33.830;151.202;2022-12-20T07:12:45;19.20;99.90
25668;DHT22;18003;-33.830;151.202;2022-12-20T07:15:15;19.20;99.90
25668;DHT22;18003;-33.830;151.202;2022-12-20T07:17:45;19.20;99.90
25668;DHT22;18003;-33.830;151.202;2022-12-20T07:20:16;19.10;99.90
25668;DHT22;18003;-33.830;151.202;2022-12-20T07:22:47;19.10;99.90
25668;DHT22;18003;-33.830;151.202;2022-12-20T07:25:17;19.10;99.90
25668;DHT22;18003;-33.830;151.202;2022-12-20T07:27:50;19.10;99.90
25668;DHT22;18003;-33.830;151.202;2022-12-20T07:30:20;19.10;99.90
25668;DHT22;18003;-33.830;151.202;2022-12-20T07:32:50;19.10;99.90
25668;DHT22;18003;-33.830;151.202;2022-12-20T07:35:20;19.10;99.90
25668;DHT22;18003;-33.830;151.202;2022-12-20T07:37:50;19.10;99.90
25668;DHT22;18003;-33.830;151.202;2022-12-20T07:40:20;19.10;99.90
25668;DHT22;18003;-33.830;151.202;2022-12-20T07:42:51;19.10;99.90
25668;DHT22;18003;-33.830;151.202;2022-12-20T07:45:21;19.10;99.90
25668;DHT22;18003;-33.830;151.202;2022-12-20T07:47:51;19.20;99.90
25668;DHT22;18003;-33.830;151.202;2022-12-20T07:50:22;19.20;99.90
25668;DHT22;18003;-33.830;151.202;2022-12-20T07:52:52;19.10;99.90
25668;DHT22;18003;-33.830;151.202;2022-12-20T07:55:23;19.10;99.90
25668;DHT22;18003;-33.830;151.202;2022-12-20T07:57:55;19.10;99.90
25668;DHT22;18003;-33.830;151.202;2022-12-20T08:00:25;19.10;99.90
25668;DHT22;18003;-33.830;151.202;2022-12-20T08:03:12;19.10;99.90
25668;DHT22;18003;-33.830;151.202;2022-12-20T08:05:40;19.10;99.90
25668;DHT22;18003;-33.830;151.202;2022-12-20T08:08:11;19.10;99.90
25668;DHT22;18003;-33.830;151.202;2022-12-20T08:10:41;19.00;99.90
25668;DHT22;18003;-33.830;151.202;2022-12-20T08:13:12;19.00;99.90
25668;DHT22;18003;-33.830;151.202;2022-12-20T08:15:42;19.10;99.90
25668;DHT22;18003;-33.830;151.202;2022-12-20T08:18:12;19.10;99.90
25668;DHT22;18003;-33.830;151.202;2022-12-20T08:20:43;19.10;99.90
25668;DHT22;18003;-33.830;151.202;2022-12-20T08:23:13;19.10;99.90
25668;DHT22;18003;-33.830;151.202;2022-12-20T08:25:42;19.10;99.90
25668;DHT22;18003;-33.830;151.202;2022-12-20T08:28:13;19.00;99.90
25668;DHT22;18003;-33.830;151.202;2022-12-20T08:30:43;19.00;99.90
25668;DHT22;18003;-33.830;151.202;2022-12-20T08:33:13;19.10;99.90
25668;DHT22;18003;-33.830;151.202;2022-12-20T08:35:43;19.00;99.90
25668;DHT22;18003;-33.830;151.202;2022-12-20T08:38:13;19.10;99.90
25668;DHT22;18003;-33.830;151.202;2022-12-20T08:40:43;19.10;99.90
25668;DHT22;18003;-33.830;151.202;2022-12-20T08:43:13;19.00;99.90
25668;DHT22;18003;-33.830;151.202;2022-12-20T08:45:43;19.10;99.90
25668;DHT22;18003;-33.830;151.202;2022-12-20T08:48:13;19.00;99.90
25668;DHT22;18003;-33.830;151.202;2022-12-20T08:50:44;19.00;99.90
25668;DHT22;18003;-33.830;151.202;2022-12-20T08:53:14;19.00;99.90
25668;DHT22;18003;-33.830;151.202;2022-12-20T08:55:44;19.00;99.90
25668;DHT22;18003;-33.830;151.202;2022-12-20T08:58:15;19.00;99.90
25668;DHT22;18003;-33.830;151.202;2022-12-20T09:00:45;19.00;99.90
25668;DHT22;18003;-33.830;151.202;2022-12-20T09:03:15;19.00;99.90
25668;DHT22;18003;-33.830;151.202;2022-12-20T09:05:48;19.00;99.90
25668;DHT22;18003;-33.830;151.202;2022-12-20T09:08:18;19.00;99.90
25668;DHT22;18003;-33.830;151.202;2022-12-20T09:10:48;19.00;99.90
25668;DHT22;18003;-33.830;151.202;2022-12-20T09:13:18;18.90;99.90
25668;DHT22;18003;-33.830;151.202;2022-12-20T09:15:48;19.00;99.90
25668;DHT22;18003;-33.830;151.202;2022-12-20T09:18:18;19.00;99.90
25668;DHT22;18003;-33.830;151.202;2022-12-20T09:20:48;19.00;99.90
25668;DHT22;18003;-33.830;151.202;2022-12-20T09:23:19;19.00;99.90
25668;DHT22;18003;-33.830;151.202;2022-12-20T09:25:49;19.00;99.90
25668;DHT22;18003;-33.830;151.202;2022-12-20T09:28:19;19.00;99.90
25668;DHT22;18003;-33.830;151.202;2022-12-20T09:30:49;19.00;99.90
25668;DHT22;18003;-33.830;151.202;2022-12-20T09:33:19;18.90;99.90
25668;DHT22;18003;-33.830;151.202;2022-12-20T09:35:49;18.90;99.90
25668;DHT22;18003;-33.830;151.202;2022-12-20T09:38:19;18.90;99.90
25668;DHT22;18003;-33.830;151.202;2022-12-20T09:40:51;19.00;99.90
25668;DHT22;18003;-33.830;151.202;2022-12-20T09:43:22;18.90;99.90
25668;DHT22;18003;-33.830;151.202;2022-12-20T09:45:53;18.90;99.90
25668;DHT22;18003;-33.830;151.202;2022-12-20T09:48:25;18.90;99.90
25668;DHT22;18003;-33.830;151.202;2022-12-20T09:54:15;18.90;99.90
25668;DHT22;18003;-33.830;151.202;2022-12-20T09:56:57;18.90;99.90
25668;DHT22;18003;-33.830;151.202;2022-12-20T09:59:21;18.90;99.90
25668;DHT22;18003;-33.830;151.202;2022-12-20T10:01:51;18.90;99.90
25668;DHT22;18003;-33.830;151.202;2022-12-20T10:04:26;18.90;99.90
25668;DHT22;18003;-33.830;151.202;2022-12-20T10:07:34;18.80;99.90
25668;DHT22;18003;-33.830;151.202;2022-12-20T10:09:55;18.90;99.90
25668;DHT22;18003;-33.830;151.202;2022-12-20T10:15:17;18.90;99.90
25668;DHT22;18003;-33.830;151.202;2022-12-20T10:20:37;18.90;99.90
25668;DHT22;18003;-33.830;151.202;2022-12-20T10:25:41;18.90;99.90
25668;DHT22;18003;-33.830;151.202;2022-12-20T10:28:14;18.90;99.90
25668;DHT22;18003;-33.830;151.202;2022-12-20T10:30:44;18.90;99.90
25668;DHT22;18003;-33.830;151.202;2022-12-20T10:33:22;18.90;99.90
25668;DHT22;18003;-33.830;151.202;2022-12-20T10:35:52;18.90;99.90
25668;DHT22;18003;-33.830;151.202;2022-12-20T10:38:22;18.80;99.90
25668;DHT22;18003;-33.830;151.202;2022-12-20T10:43:36;18.90;99.90
25668;DHT22;18003;-33.830;151.202;2022-12-20T10:46:01;18.80;99.90
25668;DHT22;18003;-33.830;151.202;2022-12-20T10:48:38;18.80;99.90
25668;DHT22;18003;-33.830;151.202;2022-12-20T10:51:19;18.80;99.90
25668;DHT22;18003;-33.830;151.202;2022-12-20T10:56:35;18.80;99.90
25668;DHT22;18003;-33.830;151.202;2022-12-20T11:01:49;18.80;99.90
25668;DHT22;18003;-33.830;151.202;2022-12-20T11:04:30;18.80;99.90
25668;DHT22;18003;-33.830;151.202;2022-12-20T11:07:24;18.80;99.90
25668;DHT22;18003;-33.830;151.202;2022-12-20T11:09:38;18.80;99.90
25668;DHT22;18003;-33.830;151.202;2022-12-20T11:12:12;18.80;99.90
25668;DHT22;18003;-33.830;151.202;2022-12-20T11:14:43;18.80;99.90
25668;DHT22;18003;-33.830;151.202;2022-12-20T11:20:10;18.80;99.90
25668;DHT22;18003;-33.830;151.202;2022-12-20T11:31:07;18.70;99.90
25668;DHT22;18003;-33.830;151.202;2022-12-20T11:33:50;18.70;99.90
25668;DHT22;18003;-33.830;151.202;2022-12-20T11:39:20;18.70;99.90
25668;DHT22;18003;-33.830;151.202;2022-12-20T11:42:03;18.80;99.90
25668;DHT22;18003;-33.830;151.202;2022-12-20T11:53:15;18.70;99.90
25668;DHT22;18003;-33.830;151.202;2022-12-20T11:55:44;18.70;99.90
25668;DHT22;18003;-33.830;151.202;2022-12-20T12:00:59;18.70;99.90
25668;DHT22;18003;-33.830;151.202;2022-12-20T12:03:39;18.70;99.90
25668;DHT22;18003;-33.830;151.202;2022-12-20T12:06:31;18.70;99.90
25668;DHT22;18003;-33.830;151.202;2022-12-20T12:11:51;18.70;99.90
25668;DHT22;18003;-33.830;151.202;2022-12-20T12:14:29;18.70;99.90
25668;DHT22;18003;-33.830;151.202;2022-12-20T12:17:03;18.70;99.90
25668;DHT22;18003;-33.830;151.202;2022-12-20T12:19:31;18.70;99.90
25668;DHT22;18003;-33.830;151.202;2022-12-20T12:22:07;18.60;99.90
25668;DHT22;18003;-33.830;151.202;2022-12-20T12:24:41;18.70;99.90
25668;DHT22;18003;-33.830;151.202;2022-12-20T12:27:24;18.70;99.90
25668;DHT22;18003;-33.830;151.202;2022-12-20T12:29:56;18.60;99.90
25668;DHT22;18003;-33.830;151.202;2022-12-20T12:35:12;18.60;99.90
25668;DHT22;18003;-33.830;151.202;2022-12-20T12:37:54;18.60;99.90
25668;DHT22;18003;-33.830;151.202;2022-12-20T12:43:25;18.60;99.90
25668;DHT22;18003;-33.830;151.202;2022-12-20T12:45:57;18.60;99.90
25668;DHT22;18003;-33.830;151.202;2022-12-20T12:48:45;18.60;99.90
25668;DHT22;18003;-33.830;151.202;2022-12-20T12:51:18;18.60;99.90
25668;DHT22;18003;-33.830;151.202;2022-12-20T12:53:51;18.60;99.90
25668;DHT22;18003;-33.830;151.202;2022-12-20T12:59:14;18.60;99.90
25668;DHT22;18003;-33.830;151.202;2022-12-20T13:04:23;18.60;99.90
25668;DHT22;18003;-33.830;151.202;2022-12-20T13:07:24;18.60;99.90
25668;DHT22;18003;-33.830;151.202;2022-12-20T13:09:36;18.60;99.90
25668;DHT22;18003;-33.830;151.202;2022-12-20T13:14:54;18.60;99.90
25668;DHT22;18003;-33.830;151.202;2022-12-20T13:19:59;18.60;99.90
25668;DHT22;18003;-33.830;151.202;2022-12-20T13:22:30;18.60;99.90
25668;DHT22;18003;-33.830;151.202;2022-12-20T13:25:01;18.60;99.90
25668;DHT22;18003;-33.830;151.202;2022-12-20T13:27:33;18.60;99.90
25668;DHT22;18003;-33.830;151.202;2022-12-20T13:35:28;18.60;99.90
25668;DHT22;18003;-33.830;151.202;2022-12-20T13:38:08;18.60;99.90
25668;DHT22;18003;-33.830;151.202;2022-12-20T13:40:48;18.60;99.90
25668;DHT22;18003;-33.830;151.202;2022-12-20T13:46:03;18.60;99.90
25668;DHT22;18003;-33.830;151.202;2022-12-20T13:48:37;18.60;99.90
25668;DHT22;18003;-33.830;151.202;2022-12-20T13:51:06;18.60;99.90
25668;DHT22;18003;-33.830;151.202;2022-12-20T13:53:38;18.60;99.90
25668;DHT22;18003;-33.830;151.202;2022-12-20T13:59:21;18.50;99.90
25668;DHT22;18003;-33.830;151.202;2022-12-20T14:01:53;18.60;99.90
25668;DHT22;18003;-33.830;151.202;2022-12-20T14:04:24;18.60;99.90
25668;DHT22;18003;-33.830;151.202;2022-12-20T14:07:00;18.60;99.90
25668;DHT22;18003;-33.830;151.202;2022-12-20T14:09:37;18.60;99.90
25668;DHT22;18003;-33.830;151.202;2022-12-20T14:12:11;18.60;99.90
25668;DHT22;18003;-33.830;151.202;2022-12-20T14:14:48;18.50;99.90
25668;DHT22;18003;-33.830;151.202;2022-12-20T14:17:31;18.50;99.90
25668;DHT22;18003;-33.830;151.202;2022-12-20T14:22:50;18.50;99.90
25668;DHT22;18003;-33.830;151.202;2022-12-20T14:25:20;18.50;99.90
25668;DHT22;18003;-33.830;151.202;2022-12-20T14:27:49;18.50;99.90
25668;DHT22;18003;-33.830;151.202;2022-12-20T14:30:31;18.50;99.90
25668;DHT22;18003;-33.830;151.202;2022-12-20T14:32:57;18.50;99.90
25668;DHT22;18003;-33.830;151.202;2022-12-20T14:35:27;18.50;99.90
25668;DHT22;18003;-33.830;151.202;2022-12-20T14:38:01;18.50;99.90
25668;DHT22;18003;-33.830;151.202;2022-12-20T14:40:39;18.50;99.90
25668;DHT22;18003;-33.830;151.202;2022-12-20T14:43:13;18.50;99.90
25668;DHT22;18003;-33.830;151.202;2022-12-20T14:45:32;18.40;99.90
25668;DHT22;18003;-33.830;151.202;2022-12-20T14:48:11;18.50;99.90
25668;DHT22;18003;-33.830;151.202;2022-12-20T14:50:38;18.40;99.90
25668;DHT22;18003;-33.830;151.202;2022-12-20T14:53:23;18.40;99.90
25668;DHT22;18003;-33.830;151.202;2022-12-20T14:55:54;18.40;99.90
25668;DHT22;18003;-33.830;151.202;2022-12-20T14:58:32;18.40;99.90
25668;DHT22;18003;-33.830;151.202;2022-12-20T15:03:58;18.40;99.90
25668;DHT22;18003;-33.830;151.202;2022-12-20T15:06:43;18.40;99.90
25668;DHT22;18003;-33.830;151.202;2022-12-20T15:09:16;18.30;99.90
25668;DHT22;18003;-33.830;151.202;2022-12-20T15:11:45;18.40;99.90
25668;DHT22;18003;-33.830;151.202;2022-12-20T15:14:36;18.40;99.90
25668;DHT22;18003;-33.830;151.202;2022-12-20T15:17:09;18.40;99.90
25668;DHT22;18003;-33.830;151.202;2022-12-20T15:19:36;18.40;99.90
25668;DHT22;18003;-33.830;151.202;2022-12-20T15:22:11;18.40;99.90
25668;DHT22;18003;-33.830;151.202;2022-12-20T15:24:37;18.40;99.90
25668;DHT22;18003;-33.830;151.202;2022-12-20T15:27:14;18.30;99.90
25668;DHT22;18003;-33.830;151.202;2022-12-20T15:29:44;18.30;99.90
25668;DHT22;18003;-33.830;151.202;2022-12-20T15:34:46;18.30;99.90
25668;DHT22;18003;-33.830;151.202;2022-12-20T15:37:16;18.30;99.90
25668;DHT22;18003;-33.830;151.202;2022-12-20T15:39:46;18.30;99.90
25668;DHT22;18003;-33.830;151.202;2022-12-20T15:42:17;18.30;99.90
25668;DHT22;18003;-33.830;151.202;2022-12-20T15:44:48;18.30;99.90
25668;DHT22;18003;-33.830;151.202;2022-12-20T15:47:18;18.30;99.90
25668;DHT22;18003;-33.830;151.202;2022-12-20T15:49:48;18.30;99.90
25668;DHT22;18003;-33.830;151.202;2022-12-20T15:52:22;18.30;99.90
25668;DHT22;18003;-33.830;151.202;2022-12-20T15:54:52;18.30;99.90
25668;DHT22;18003;-33.830;151.202;2022-12-20T15:57:22;18.30;99.90
25668;DHT22;18003;-33.830;151.202;2022-12-20T15:59:52;18.30;99.90
25668;DHT22;18003;-33.830;151.202;2022-12-20T16:02:25;18.30;99.90
25668;DHT22;18003;-33.830;151.202;2022-12-20T16:04:55;18.20;99.90
25668;DHT22;18003;-33.830;151.202;2022-12-20T16:07:26;18.30;99.90
25668;DHT22;18003;-33.830;151.202;2022-12-20T16:09:57;18.30;99.90
25668;DHT22;18003;-33.830;151.202;2022-12-20T16:12:28;18.20;99.90
25668;DHT22;18003;-33.830;151.202;2022-12-20T16:14:58;18.30;99.90
25668;DHT22;18003;-33.830;151.202;2022-12-20T16:17:28;18.20;99.90
25668;DHT22;18003;-33.830;151.202;2022-12-20T16:19:58;18.20;99.90
25668;DHT22;18003;-33.830;151.202;2022-12-20T16:22:28;18.30;99.90
25668;DHT22;18003;-33.830;151.202;2022-12-20T16:24:58;18.30;99.90
25668;DHT22;18003;-33.830;151.202;2022-12-20T16:27:28;18.30;99.90
25668;DHT22;18003;-33.830;151.202;2022-12-20T16:29:58;18.20;99.90
25668;DHT22;18003;-33.830;151.202;2022-12-20T16:32:28;18.30;99.90
25668;DHT22;18003;-33.830;151.202;2022-12-20T16:34:58;18.20;99.90
25668;DHT22;18003;-33.830;151.202;2022-12-20T16:37:28;18.30;99.90
25668;DHT22;18003;-33.830;151.202;2022-12-20T16:39:58;18.30;99.90
25668;DHT22;18003;-33.830;151.202;2022-12-20T16:42:28;18.20;99.90
25668;DHT22;18003;-33.830;151.202;2022-12-20T16:44:59;18.30;99.90
25668;DHT22;18003;-33.830;151.202;2022-12-20T16:47:29;18.20;99.90